Antares — DFJQ — position and weather

sailwx.info

Track history (hours):
 
Tides and Currents Weather Stations Pressure Air Temp Water Temp Dewpoint Dewpoint Depression Visibility Wind Speed Wind Dir Waves Ship Positions

Antares

Last reported at 2015-Jan-31 18:33 UTC. Time now 2015-Jan-31 19:19 UTC.
Position N 53°56' E 009°13'.

Length 79 m; draft 4.2 m.

Type: Ship. MMSI: 218777000.

Date/timePositionNaut miles runAvg speedWind from/ knotsBaromVisibWave heightAir tempDewpointWater temp
2015-Jan-31 18:33N 53°56' E 009°13'2 2.4
2015-Jan-31 17:32N 53°54' E 009°10'0 0.0
2015-Jan-31 16:32N 53°54' E 009°10'0 0.0
2015-Jan-31 15:32N 53°54' E 009°10'0 0.0
2015-Jan-31 14:32N 53°54' E 009°10'0 0.0
2015-Jan-31 13:32N 53°54' E 009°10'0 0.0
2015-Jan-31 12:23N 53°54' E 009°10'0 0.0
2015-Jan-31 11:32N 53°54' E 009°10'0 0.0
2015-Jan-31 10:32N 53°54' E 009°10'0 0.0
2015-Jan-31 09:32N 53°54' E 009°10'0 0.0
2015-Jan-31 08:32N 53°54' E 009°10'0 0.0
2015-Jan-31 07:32N 53°54' E 009°10'0 0.0
2015-Jan-31 06:32N 53°54' E 009°10'0 0.0
2015-Jan-31 05:32N 53°54' E 009°10'0 0.0
2015-Jan-31 04:32N 53°54' E 009°10'0 0.0
2015-Jan-31 03:29N 53°54' E 009°10'0 0.0
2015-Jan-31 02:32N 53°54' E 009°10'1 0.7
2015-Jan-31 01:32N 53°55' E 009°10'0 0.0
2015-Jan-31 00:32N 53°55' E 009°10'0 0.0
2015-Jan-30 23:32N 53°55' E 009°10'0 0.0
2015-Jan-30 22:32N 53°55' E 009°10'0 0.0
2015-Jan-30 21:32N 53°55' E 009°10'0 0.0
2015-Jan-30 20:32N 53°55' E 009°10'0 0.0
2015-Jan-30 19:32N 53°55' E 009°10'0 0.0
2015-Jan-30 18:32N 53°55' E 009°10'0 0.0
2015-Jan-30 17:32N 53°55' E 009°10'0 0.0
2015-Jan-30 16:32N 53°55' E 009°10'0 0.0
2015-Jan-30 15:32N 53°55' E 009°10'0 0.0
2015-Jan-30 14:32N 53°55' E 009°10'0 0.0
2015-Jan-30 13:32N 53°55' E 009°10'1 1.3
2015-Jan-30 12:33N 53°54' E 009°09'1 0.7
2015-Jan-30 11:33N 53°53' E 009°09'9 9.3
2015-Jan-30 10:33N 53°48' E 009°23'9 9.0
2015-Jan-30 09:33N 53°40' E 009°31'8 8.1
2015-Jan-30 08:33N 53°34' E 009°39'8 7.7
2015-Jan-30 07:34N 53°33' E 009°52'3 2.8
2015-Jan-30 06:27N 53°31' E 009°56'0 0.0
2015-Jan-30 05:33N 53°31' E 009°56'0 0.0
2015-Jan-30 04:33N 53°31' E 009°56'0 0.0
2015-Jan-30 03:30N 53°31' E 009°56'0 0.0
2015-Jan-30 02:33N 53°31' E 009°56'0 0.0
2015-Jan-30 01:33N 53°31' E 009°56'0 0.0
2015-Jan-30 00:33N 53°31' E 009°56'0 0.0
2015-Jan-29 23:30N 53°31' E 009°56'0 0.0
2015-Jan-29 22:33N 53°31' E 009°56'0 0.0
2015-Jan-29 21:33N 53°31' E 009°56'0 0.0
2015-Jan-29 20:33N 53°31' E 009°56'0 0.0
2015-Jan-29 19:30N 53°31' E 009°56'0 0.0
2015-Jan-29 18:33N 53°31' E 009°56'0 0.0
2015-Jan-29 17:33N 53°31' E 009°56'0 0.0
2015-Jan-29 16:33N 53°31' E 009°56'0 0.0
2015-Jan-29 15:33N 53°31' E 009°56'0 0.0
2015-Jan-29 14:33N 53°31' E 009°56'0 0.0
2015-Jan-29 13:30N 53°31' E 009°56'0 0.0
2015-Jan-29 12:33N 53°31' E 009°56'0 0.0
2015-Jan-29 11:33N 53°31' E 009°56'0 0.0
2015-Jan-29 10:18N 53°31' E 009°56'0 0.0
2015-Jan-29 09:33N 53°31' E 009°56'0 0.0
2015-Jan-29 08:30N 53°31' E 009°56'0 0.0
2015-Jan-29 07:24N 53°31' E 009°56'0 0.0
2015-Jan-29 06:27N 53°31' E 009°56'0 0.0
2015-Jan-29 05:30N 53°31' E 009°56'0 0.0
2015-Jan-29 03:24N 53°31' E 009°56'0 0.0
2015-Jan-29 02:30N 53°31' E 009°56'0 0.0
2015-Jan-29 01:30N 53°31' E 009°56'0 0.0
2015-Jan-29 00:30N 53°31' E 009°56'0 0.0
2015-Jan-28 23:33N 53°31' E 009°56'0 0.0
2015-Jan-28 22:33N 53°31' E 009°56'0 0.0
2015-Jan-28 21:30N 53°31' E 009°56'0 0.0
2015-Jan-28 20:30N 53°31' E 009°56'1 1.6
2015-Jan-28 19:34N 53°32' E 009°55'1211.9
2015-Jan-28 18:34N 53°36' E 009°36'1212.4
2015-Jan-28 17:34N 53°46' E 009°24'1211.5
2015-Jan-28 16:34N 53°53' E 009°08'1313.2
2015-Jan-28 15:33N 53°51' E 008°46'2 2.2
2015-Jan-28 14:33N 53°52' E 008°43'0 0.0
2015-Jan-28 13:33N 53°52' E 008°43'0 0.0
2015-Jan-28 12:33N 53°52' E 008°43'0 0.0
2015-Jan-28 11:33N 53°52' E 008°43'0 0.0
2015-Jan-28 10:33N 53°52' E 008°43'0 0.0
2015-Jan-28 09:33N 53°52' E 008°43'0 0.0
2015-Jan-28 08:33N 53°52' E 008°43'0 0.0
2015-Jan-28 07:33N 53°52' E 008°43'0 0.0
2015-Jan-28 06:33N 53°52' E 008°43'0 0.0
2015-Jan-28 05:33N 53°52' E 008°43'0 0.0
2015-Jan-28 04:33N 53°52' E 008°43'0 0.0
2015-Jan-28 03:33N 53°52' E 008°43'0 0.1
2015-Jan-28 02:33N 53°52' E 008°43'1 0.5
2015-Jan-28 01:33N 53°52' E 008°43'5 4.8
2015-Jan-28 00:34N 53°56' E 008°39'5 5.4
2015-Jan-27 23:34N 53°58' E 008°30'0 0.2
2015-Jan-27 22:32N 53°58' E 008°30'0 0.0
2015-Jan-27 21:29N 53°58' E 008°30'0 0.0
2015-Jan-27 20:32N 53°58' E 008°30'5 5.0
2015-Jan-27 19:33N 53°59' E 008°22'9 9.0
2015-Jan-27 18:33N 53°58' E 008°06'6 6.2
2015-Jan-27 17:33N 53°52' E 008°06'10 9.8
2015-Jan-27 16:33N 53°44' E 008°15'9 9.2
2015-Jan-27 15:33N 53°38' E 008°27'6 5.8
2015-Jan-27 14:33N 53°34' E 008°33'0 0.0
2015-Jan-27 13:33N 53°34' E 008°33'0 0.0
2015-Jan-27 12:33N 53°34' E 008°33'0 0.0
2015-Jan-27 11:33N 53°34' E 008°33'0 0.0
2015-Jan-27 10:33N 53°34' E 008°33'0 0.0
2015-Jan-27 09:33N 53°34' E 008°33'0 0.0
2015-Jan-27 08:33N 53°34' E 008°33'0 0.0
2015-Jan-27 07:33N 53°34' E 008°33'6 6.0
2015-Jan-27 06:33N 53°38' E 008°27'9 9.3
2015-Jan-27 05:33N 53°44' E 008°15'9 9.1
2015-Jan-27 04:33N 53°52' E 008°07'7 7.3
2015-Jan-27 03:33N 53°57' E 007°59'6 6.1
2015-Jan-27 02:33N 54°01' E 008°08'5 5.4
2015-Jan-27 01:33N 54°00' E 008°17'6 6.2
2015-Jan-27 00:34N 53°59' E 008°27'9 8.7
2015-Jan-26 23:33N 53°55' E 008°41'1211.5
2015-Jan-26 22:34N 53°51' E 008°59'1212.5
2015-Jan-26 21:33N 53°51' E 009°20'1211.9
2015-Jan-26 20:33N 53°41' E 009°30'9 9.4
2015-Jan-26 19:34N 53°34' E 009°42'9 8.6
2015-Jan-26 18:34N 53°32' E 009°56'2 2.3
2015-Jan-26 17:31N 53°30' E 009°57'0 0.0
2015-Jan-26 16:31N 53°30' E 009°57'0 0.0
2015-Jan-26 15:32N 53°30' E 009°57'0 0.0
2015-Jan-26 14:25N 53°30' E 009°57'0 0.3
2015-Jan-26 13:31N 53°30' E 009°57'0 0.0
2015-Jan-26 12:34N 53°30' E 009°57'0 0.0
2015-Jan-26 11:31N 53°30' E 009°57'0 0.0
2015-Jan-26 10:32N 53°30' E 009°57'0 0.0
2015-Jan-26 09:31N 53°30' E 009°57'0 0.0
2015-Jan-26 08:25N 53°30' E 009°57'1 0.7
2015-Jan-26 07:33N 53°30' E 009°58'0 0.0
2015-Jan-26 06:31N 53°30' E 009°58'0 0.0
2015-Jan-26 05:31N 53°30' E 009°58'0 0.0
2015-Jan-26 04:25N 53°30' E 009°58'0 0.0
2015-Jan-26 03:31N 53°30' E 009°58'0 0.0
2015-Jan-26 02:31N 53°30' E 009°58'0 0.0
2015-Jan-26 01:31N 53°30' E 009°58'0 0.0
2015-Jan-26 00:28N 53°30' E 009°58'0 0.0
2015-Jan-25 23:31N 53°30' E 009°58'0 0.0
2015-Jan-25 22:31N 53°30' E 009°58'0 0.0
2015-Jan-25 21:31N 53°30' E 009°58'0 0.0
2015-Jan-25 20:31N 53°30' E 009°58'0 0.0
2015-Jan-25 19:28N 53°30' E 009°58'0 0.0
2015-Jan-25 18:25N 53°30' E 009°58'0 0.0
2015-Jan-25 17:31N 53°30' E 009°58'0 0.0
2015-Jan-25 16:28N 53°30' E 009°58'3 3.2
2015-Jan-25 15:33N 53°32' E 009°55'1212.5
2015-Jan-25 14:33N 53°36' E 009°35'1211.5
2015-Jan-25 13:33N 53°46' E 009°24'10 9.7
2015-Jan-25 12:33N 53°53' E 009°12'2 2.1
2015-Jan-25 11:33N 53°54' E 009°09'1 0.6
2015-Jan-25 10:33N 53°54' E 009°10'2 2.0
2015-Jan-25 09:33N 53°56' E 009°12'9 8.5
2015-Jan-25 08:33N 54°03' E 009°18'6 6.0
2015-Jan-25 07:33N 54°09' E 009°22'6 6.4
2015-Jan-25 06:33N 54°12' E 009°32'8 7.9
2015-Jan-25 05:33N 54°18' E 009°41'3 3.4
2015-Jan-25 04:33N 54°20' E 009°44'7 6.8
2015-Jan-25 03:33N 54°20' E 009°56'5 4.7
2015-Jan-25 02:33N 54°22' E 010°04'3 2.8
2015-Jan-25 01:33N 54°22' E 010°08'1 1.0
2015-Jan-25 00:33N 54°22' E 010°10'8 7.7
2015-Jan-24 23:33N 54°29' E 010°16'10 9.9
2015-Jan-24 22:33N 54°33' E 010°32'1010.0
2015-Jan-24 21:33N 54°40' E 010°44'121 4.1
2015-Jan-23 16:14N 56°37' E 011°43'710.6
2015-Jan-23 15:33N 56°43' E 011°49'9 9.4
2015-Jan-23 14:33N 56°52' E 011°46'1010.0
2015-Jan-23 13:32N 56°55' E 011°28'31 1.4
2015-Jan-22 15:11N 57°14' E 010°42'810.0
2015-Jan-22 14:25N 57°22' E 010°42'910.1
2015-Jan-22 13:33N 57°31' E 010°44'10 9.9
2015-Jan-22 12:33N 57°41' E 010°45'8 7.5
2015-Jan-22 11:32N 57°47' E 010°36'  
Track history (hours):
 
Tides and Currents Weather Stations Pressure Air Temp Water Temp Dewpoint Dewpoint Depression Visibility Wind Speed Wind Dir Waves Ship Positions

Antares

Last reported at 2015-Jan-31 18:33 UTC. Time now 2015-Jan-31 19:19 UTC.
Position N 53°56' E 009°13'.

Length 79 m; draft 4.2 m.

Type: Ship. MMSI: 218777000.

Date/timePositionNaut miles runAvg speedWind from/ knotsBaromVisibWave heightAir tempDewpointWater temp
2015-Jan-31 18:33N 53°56' E 009°13'2 2.4
2015-Jan-31 17:32N 53°54' E 009°10'0 0.0
2015-Jan-31 16:32N 53°54' E 009°10'0 0.0
2015-Jan-31 15:32N 53°54' E 009°10'0 0.0
2015-Jan-31 14:32N 53°54' E 009°10'0 0.0
2015-Jan-31 13:32N 53°54' E 009°10'0 0.0
2015-Jan-31 12:23N 53°54' E 009°10'0 0.0
2015-Jan-31 11:32N 53°54' E 009°10'0 0.0
2015-Jan-31 10:32N 53°54' E 009°10'0 0.0
2015-Jan-31 09:32N 53°54' E 009°10'0 0.0
2015-Jan-31 08:32N 53°54' E 009°10'0 0.0
2015-Jan-31 07:32N 53°54' E 009°10'0 0.0
2015-Jan-31 06:32N 53°54' E 009°10'0 0.0
2015-Jan-31 05:32N 53°54' E 009°10'0 0.0
2015-Jan-31 04:32N 53°54' E 009°10'0 0.0
2015-Jan-31 03:29N 53°54' E 009°10'0 0.0
2015-Jan-31 02:32N 53°54' E 009°10'1 0.7
2015-Jan-31 01:32N 53°55' E 009°10'0 0.0
2015-Jan-31 00:32N 53°55' E 009°10'0 0.0
2015-Jan-30 23:32N 53°55' E 009°10'0 0.0
2015-Jan-30 22:32N 53°55' E 009°10'0 0.0
2015-Jan-30 21:32N 53°55' E 009°10'0 0.0
2015-Jan-30 20:32N 53°55' E 009°10'0 0.0
2015-Jan-30 19:32N 53°55' E 009°10'0 0.0
2015-Jan-30 18:32N 53°55' E 009°10'0 0.0
2015-Jan-30 17:32N 53°55' E 009°10'0 0.0
2015-Jan-30 16:32N 53°55' E 009°10'0 0.0
2015-Jan-30 15:32N 53°55' E 009°10'0 0.0
2015-Jan-30 14:32N 53°55' E 009°10'0 0.0
2015-Jan-30 13:32N 53°55' E 009°10'1 1.3
2015-Jan-30 12:33N 53°54' E 009°09'1 0.7
2015-Jan-30 11:33N 53°53' E 009°09'9 9.3
2015-Jan-30 10:33N 53°48' E 009°23'9 9.0
2015-Jan-30 09:33N 53°40' E 009°31'8 8.1
2015-Jan-30 08:33N 53°34' E 009°39'8 7.7
2015-Jan-30 07:34N 53°33' E 009°52'3 2.8
2015-Jan-30 06:27N 53°31' E 009°56'0 0.0
2015-Jan-30 05:33N 53°31' E 009°56'0 0.0
2015-Jan-30 04:33N 53°31' E 009°56'0 0.0
2015-Jan-30 03:30N 53°31' E 009°56'0 0.0
2015-Jan-30 02:33N 53°31' E 009°56'0 0.0
2015-Jan-30 01:33N 53°31' E 009°56'0 0.0
2015-Jan-30 00:33N 53°31' E 009°56'0 0.0
2015-Jan-29 23:30N 53°31' E 009°56'0 0.0
2015-Jan-29 22:33N 53°31' E 009°56'0 0.0
2015-Jan-29 21:33N 53°31' E 009°56'0 0.0
2015-Jan-29 20:33N 53°31' E 009°56'0 0.0
2015-Jan-29 19:30N 53°31' E 009°56'0 0.0
2015-Jan-29 18:33N 53°31' E 009°56'0 0.0
2015-Jan-29 17:33N 53°31' E 009°56'0 0.0
2015-Jan-29 16:33N 53°31' E 009°56'0 0.0
2015-Jan-29 15:33N 53°31' E 009°56'0 0.0
2015-Jan-29 14:33N 53°31' E 009°56'0 0.0
2015-Jan-29 13:30N 53°31' E 009°56'0 0.0
2015-Jan-29 12:33N 53°31' E 009°56'0 0.0
2015-Jan-29 11:33N 53°31' E 009°56'0 0.0
2015-Jan-29 10:18N 53°31' E 009°56'0 0.0
2015-Jan-29 09:33N 53°31' E 009°56'0 0.0
2015-Jan-29 08:30N 53°31' E 009°56'0 0.0
2015-Jan-29 07:24N 53°31' E 009°56'0 0.0
2015-Jan-29 06:27N 53°31' E 009°56'0 0.0
2015-Jan-29 05:30N 53°31' E 009°56'0 0.0
2015-Jan-29 03:24N 53°31' E 009°56'0 0.0
2015-Jan-29 02:30N 53°31' E 009°56'0 0.0
2015-Jan-29 01:30N 53°31' E 009°56'0 0.0
2015-Jan-29 00:30N 53°31' E 009°56'0 0.0
2015-Jan-28 23:33N 53°31' E 009°56'0 0.0
2015-Jan-28 22:33N 53°31' E 009°56'0 0.0
2015-Jan-28 21:30N 53°31' E 009°56'0 0.0
2015-Jan-28 20:30N 53°31' E 009°56'1 1.6
2015-Jan-28 19:34N 53°32' E 009°55'1211.9
2015-Jan-28 18:34N 53°36' E 009°36'1212.4
2015-Jan-28 17:34N 53°46' E 009°24'1211.5
2015-Jan-28 16:34N 53°53' E 009°08'1313.2
2015-Jan-28 15:33N 53°51' E 008°46'2 2.2
2015-Jan-28 14:33N 53°52' E 008°43'0 0.0
2015-Jan-28 13:33N 53°52' E 008°43'0 0.0
2015-Jan-28 12:33N 53°52' E 008°43'0 0.0
2015-Jan-28 11:33N 53°52' E 008°43'0 0.0
2015-Jan-28 10:33N 53°52' E 008°43'0 0.0
2015-Jan-28 09:33N 53°52' E 008°43'0 0.0
2015-Jan-28 08:33N 53°52' E 008°43'0 0.0
2015-Jan-28 07:33N 53°52' E 008°43'0 0.0
2015-Jan-28 06:33N 53°52' E 008°43'0 0.0
2015-Jan-28 05:33N 53°52' E 008°43'0 0.0
2015-Jan-28 04:33N 53°52' E 008°43'0 0.0
2015-Jan-28 03:33N 53°52' E 008°43'0 0.1
2015-Jan-28 02:33N 53°52' E 008°43'1 0.5
2015-Jan-28 01:33N 53°52' E 008°43'5 4.8
2015-Jan-28 00:34N 53°56' E 008°39'5 5.4
2015-Jan-27 23:34N 53°58' E 008°30'0 0.2
2015-Jan-27 22:32N 53°58' E 008°30'0 0.0
2015-Jan-27 21:29N 53°58' E 008°30'0 0.0
2015-Jan-27 20:32N 53°58' E 008°30'5 5.0
2015-Jan-27 19:33N 53°59' E 008°22'9 9.0
2015-Jan-27 18:33N 53°58' E 008°06'6 6.2
2015-Jan-27 17:33N 53°52' E 008°06'10 9.8
2015-Jan-27 16:33N 53°44' E 008°15'9 9.2
2015-Jan-27 15:33N 53°38' E 008°27'6 5.8
2015-Jan-27 14:33N 53°34' E 008°33'0 0.0
2015-Jan-27 13:33N 53°34' E 008°33'0 0.0
2015-Jan-27 12:33N 53°34' E 008°33'0 0.0
2015-Jan-27 11:33N 53°34' E 008°33'0 0.0
2015-Jan-27 10:33N 53°34' E 008°33'0 0.0
2015-Jan-27 09:33N 53°34' E 008°33'0 0.0
2015-Jan-27 08:33N 53°34' E 008°33'0 0.0
2015-Jan-27 07:33N 53°34' E 008°33'6 6.0
2015-Jan-27 06:33N 53°38' E 008°27'9 9.3
2015-Jan-27 05:33N 53°44' E 008°15'9 9.1
2015-Jan-27 04:33N 53°52' E 008°07'7 7.3
2015-Jan-27 03:33N 53°57' E 007°59'6 6.1
2015-Jan-27 02:33N 54°01' E 008°08'5 5.4
2015-Jan-27 01:33N 54°00' E 008°17'6 6.2
2015-Jan-27 00:34N 53°59' E 008°27'9 8.7
2015-Jan-26 23:33N 53°55' E 008°41'1211.5
2015-Jan-26 22:34N 53°51' E 008°59'1212.5
2015-Jan-26 21:33N 53°51' E 009°20'1211.9
2015-Jan-26 20:33N 53°41' E 009°30'9 9.4
2015-Jan-26 19:34N 53°34' E 009°42'9 8.6
2015-Jan-26 18:34N 53°32' E 009°56'2 2.3
2015-Jan-26 17:31N 53°30' E 009°57'0 0.0
2015-Jan-26 16:31N 53°30' E 009°57'0 0.0
2015-Jan-26 15:32N 53°30' E 009°57'0 0.0
2015-Jan-26 14:25N 53°30' E 009°57'0 0.3
2015-Jan-26 13:31N 53°30' E 009°57'0 0.0
2015-Jan-26 12:34N 53°30' E 009°57'0 0.0
2015-Jan-26 11:31N 53°30' E 009°57'0 0.0
2015-Jan-26 10:32N 53°30' E 009°57'0 0.0
2015-Jan-26 09:31N 53°30' E 009°57'0 0.0
2015-Jan-26 08:25N 53°30' E 009°57'1 0.7
2015-Jan-26 07:33N 53°30' E 009°58'0 0.0
2015-Jan-26 06:31N 53°30' E 009°58'0 0.0
2015-Jan-26 05:31N 53°30' E 009°58'0 0.0
2015-Jan-26 04:25N 53°30' E 009°58'0 0.0
2015-Jan-26 03:31N 53°30' E 009°58'0 0.0
2015-Jan-26 02:31N 53°30' E 009°58'0 0.0
2015-Jan-26 01:31N 53°30' E 009°58'0 0.0
2015-Jan-26 00:28N 53°30' E 009°58'0 0.0
2015-Jan-25 23:31N 53°30' E 009°58'0 0.0
2015-Jan-25 22:31N 53°30' E 009°58'0 0.0
2015-Jan-25 21:31N 53°30' E 009°58'0 0.0
2015-Jan-25 20:31N 53°30' E 009°58'0 0.0
2015-Jan-25 19:28N 53°30' E 009°58'0 0.0
2015-Jan-25 18:25N 53°30' E 009°58'0 0.0
2015-Jan-25 17:31N 53°30' E 009°58'0 0.0
2015-Jan-25 16:28N 53°30' E 009°58'3 3.2
2015-Jan-25 15:33N 53°32' E 009°55'1212.5
2015-Jan-25 14:33N 53°36' E 009°35'1211.5
2015-Jan-25 13:33N 53°46' E 009°24'10 9.7
2015-Jan-25 12:33N 53°53' E 009°12'2 2.1
2015-Jan-25 11:33N 53°54' E 009°09'1 0.6
2015-Jan-25 10:33N 53°54' E 009°10'2 2.0
2015-Jan-25 09:33N 53°56' E 009°12'9 8.5
2015-Jan-25 08:33N 54°03' E 009°18'6 6.0
2015-Jan-25 07:33N 54°09' E 009°22'6 6.4
2015-Jan-25 06:33N 54°12' E 009°32'8 7.9
2015-Jan-25 05:33N 54°18' E 009°41'3 3.4
2015-Jan-25 04:33N 54°20' E 009°44'7 6.8
2015-Jan-25 03:33N 54°20' E 009°56'5 4.7
2015-Jan-25 02:33N 54°22' E 010°04'3 2.8
2015-Jan-25 01:33N 54°22' E 010°08'1 1.0
2015-Jan-25 00:33N 54°22' E 010°10'8 7.7
2015-Jan-24 23:33N 54°29' E 010°16'10 9.9
2015-Jan-24 22:33N 54°33' E 010°32'1010.0
2015-Jan-24 21:33N 54°40' E 010°44'121 4.1
2015-Jan-23 16:14N 56°37' E 011°43'710.6
2015-Jan-23 15:33N 56°43' E 011°49'9 9.4
2015-Jan-23 14:33N 56°52' E 011°46'1010.0
2015-Jan-23 13:32N 56°55' E 011°28'31 1.4
2015-Jan-22 15:11N 57°14' E 010°42'810.0
2015-Jan-22 14:25N 57°22' E 010°42'910.1
2015-Jan-22 13:33N 57°31' E 010°44'10 9.9
2015-Jan-22 12:33N 57°41' E 010°45'8 7.5
2015-Jan-22 11:32N 57°47' E 010°36'  

Dump ship's entire track history